createdAt,value
2017-04-25T00:00:18.209Z,13.03
2017-04-25T00:01:27.330Z,13.07
2017-04-25T00:02:36.330Z,13.03
2017-04-25T00:03:47.234Z,13.04
2017-04-25T00:04:58.823Z,13.07
2017-04-25T00:06:08.571Z,13.08
2017-04-25T00:07:17.563Z,13.04
2017-04-25T00:08:26.545Z,13.04
2017-04-25T00:09:35.530Z,13.11
2017-04-25T00:10:44.842Z,13.07
2017-04-25T00:11:53.950Z,13.1
2017-04-25T00:13:03.435Z,13.01
2017-04-25T00:14:12.651Z,13.01
2017-04-25T00:15:21.995Z,13.04
2017-04-25T00:16:31.238Z,13.07
2017-04-25T00:17:40.848Z,13.07
2017-04-25T00:18:49.863Z,12.89
2017-04-25T00:19:59.395Z,12.92
2017-04-25T00:21:08.390Z,12.9
2017-04-25T00:22:18.140Z,12.86
2017-04-25T00:23:27.153Z,12.86
2017-04-25T00:24:36.555Z,12.83
2017-04-25T00:25:45.784Z,12.86
2017-04-25T00:26:55.363Z,12.87
2017-04-25T00:28:04.660Z,12.97
2017-04-25T00:29:14.271Z,12.92
2017-04-25T00:30:23.384Z,12.86
2017-04-25T00:31:33.075Z,12.86
2017-04-25T00:32:42.158Z,12.89
2017-04-25T00:33:51.808Z,12.9
2017-04-25T00:35:00.905Z,12.93
2017-04-25T00:36:10.689Z,13.01
2017-04-25T00:37:19.684Z,12.93
2017-04-25T00:38:29.407Z,13
2017-04-25T00:39:38.742Z,12.86
2017-04-25T00:40:48.253Z,12.86
2017-04-25T00:41:57.239Z,12.92
2017-04-25T00:43:07.006Z,12.83
2017-04-25T00:44:16.018Z,12.87
2017-04-25T00:45:25.806Z,12.86
2017-04-25T00:46:34.975Z,12.83
2017-04-25T00:47:44.908Z,12.74
2017-04-25T00:48:55.729Z,12.82
2017-04-25T00:50:07.125Z,12.82
2017-04-25T00:51:16.538Z,12.79
2017-04-25T00:52:25.656Z,12.75
2017-04-25T00:53:35.327Z,12.68
2017-04-25T00:54:44.927Z,12.74
2017-04-25T00:55:54.490Z,12.87
2017-04-25T00:57:03.726Z,12.77
2017-04-25T00:58:13.451Z,12.74
2017-04-25T00:59:22.762Z,12.71
2017-04-25T01:00:32.241Z,12.71
2017-04-25T01:01:41.226Z,12.74
2017-04-25T01:02:51.296Z,12.85
2017-04-25T01:04:00.431Z,12.89
2017-04-25T01:05:09.801Z,12.87
2017-04-25T01:06:18.789Z,12.89
2017-04-25T01:07:28.441Z,12.86
2017-04-25T01:08:37.713Z,12.87
2017-04-25T01:09:47.399Z,12.83
2017-04-25T01:10:56.396Z,12.86
2017-04-25T01:12:06.067Z,12.86
2017-04-25T01:13:15.055Z,12.87
2017-04-25T01:14:25.114Z,12.83
2017-04-25T01:15:34.127Z,12.89
2017-04-25T01:16:43.911Z,12.9
2017-04-25T01:17:52.999Z,12.83
2017-04-25T01:19:02.837Z,12.83
2017-04-25T01:20:12.076Z,12.83
2017-04-25T01:21:21.099Z,12.79
2017-04-25T01:22:30.177Z,12.89
2017-04-25T01:23:40.111Z,12.72
2017-04-25T01:24:49.098Z,12.87
2017-04-25T01:25:59.142Z,12.86
2017-04-25T01:27:08.129Z,12.71
2017-04-25T01:28:17.590Z,12.86
2017-04-25T01:29:26.581Z,12.85
2017-04-25T01:30:36.446Z,12.85
2017-04-25T01:31:46.015Z,12.85
2017-04-25T01:32:55.338Z,12.68
2017-04-25T01:34:04.327Z,12.7
2017-04-25T01:35:13.973Z,12.74
2017-04-25T01:36:22.962Z,12.82
2017-04-25T01:37:33.745Z,12.75
2017-04-25T01:38:42.749Z,12.75
2017-04-25T01:39:51.882Z,12.71
2017-04-25T01:41:00.870Z,12.67
2017-04-25T01:42:10.382Z,12.82
2017-04-25T01:43:19.715Z,12.82
2017-04-25T01:44:29.195Z,12.7
2017-04-25T01:45:38.179Z,12.72
2017-04-25T01:46:48.055Z,12.7
2017-04-25T01:47:57.045Z,12.68
2017-04-25T01:49:07.398Z,12.57
2017-04-25T01:50:16.385Z,12.57
2017-04-25T01:51:25.639Z,12.62
2017-04-25T01:52:34.709Z,12.54
2017-04-25T01:53:44.969Z,12.5
2017-04-25T01:54:54.233Z,12.53
2017-04-25T01:56:05.438Z,12.46
2017-04-25T01:57:15.176Z,12.47
2017-04-25T01:58:24.203Z,12.41
2017-04-25T01:59:34.110Z,12.39
2017-04-25T02:00:43.348Z,12.41
2017-04-25T02:01:53.448Z,12.31
2017-04-25T02:03:02.593Z,12.31
2017-04-25T02:04:11.739Z,12.23
2017-04-25T02:05:20.816Z,12.29
2017-04-25T02:06:30.460Z,12.2
2017-04-25T02:07:39.549Z,12.32
2017-04-25T02:08:49.943Z,12.23
2017-04-25T02:09:58.927Z,12.19
2017-04-25T02:11:08.603Z,12.27
2017-04-25T02:12:17.987Z,12.27
2017-04-25T02:13:27.925Z,12.23
2017-04-25T02:14:36.922Z,12.2
2017-04-25T02:15:45.907Z,12.2
2017-04-25T02:16:54.898Z,12.23
2017-04-25T02:18:04.708Z,12.19
2017-04-25T02:19:13.695Z,12.19
2017-04-25T02:20:23.317Z,12.14
2017-04-25T02:21:32.306Z,12.13
2017-04-25T02:22:42.083Z,12.16
2017-04-25T02:23:51.329Z,12.1
2017-04-25T02:25:01.189Z,12.12
2017-04-25T02:26:10.247Z,12.13
2017-04-25T02:27:19.844Z,12.1
2017-04-25T02:28:28.937Z,12.07
2017-04-25T02:29:38.715Z,12.19
2017-04-25T02:30:47.754Z,12.21
2017-04-25T02:31:57.145Z,12.21
2017-04-25T02:33:06.132Z,12.24
2017-04-25T02:34:15.793Z,12.19
2017-04-25T02:35:25.204Z,12.24
2017-04-25T02:36:34.860Z,12.32
2017-04-25T02:37:43.873Z,12.34
2017-04-25T02:38:53.582Z,12.2
2017-04-25T02:40:02.625Z,12.19
2017-04-25T02:41:12.240Z,12.21
2017-04-25T02:42:21.226Z,12.28
2017-04-25T02:43:31.250Z,12.35
2017-04-25T02:44:40.474Z,12.34
2017-04-25T02:45:52.717Z,12.32
2017-04-25T02:47:01.957Z,12.29
2017-04-25T02:48:13.081Z,12.32
2017-04-25T02:49:22.178Z,12.34
2017-04-25T02:50:32.282Z,12.35
2017-04-25T02:51:42.155Z,12.37
2017-04-25T02:52:51.487Z,12.32
2017-04-25T02:54:01.510Z,12.28
2017-04-25T02:55:10.498Z,12.31
2017-04-25T02:56:20.282Z,12.21
2017-04-25T02:57:29.269Z,12.29
2017-04-25T02:58:39.156Z,12.27
2017-04-25T02:59:48.149Z,12.32
2017-04-25T03:00:59.150Z,12.28
2017-04-25T03:02:08.136Z,12.23
2017-04-25T03:03:17.593Z,12.34
2017-04-25T03:04:26.842Z,12.32
2017-04-25T03:05:36.680Z,12.41
2017-04-25T03:06:45.792Z,12.41
2017-04-25T03:07:55.300Z,12.41
2017-04-25T03:09:04.293Z,12.42
2017-04-25T03:10:14.031Z,12.41
2017-04-25T03:11:23.022Z,12.35
2017-04-25T03:12:33.103Z,12.38
2017-04-25T03:13:42.428Z,12.29
2017-04-25T03:14:51.423Z,12.39
2017-04-25T03:16:00.661Z,12.24
2017-04-25T03:17:09.649Z,12.32
2017-04-25T03:18:18.636Z,12.32
2017-04-25T03:19:27.622Z,12.32
2017-04-25T03:20:36.606Z,12.39
2017-04-25T03:21:45.841Z,12.34
2017-04-25T03:22:54.914Z,12.39
2017-04-25T03:24:03.903Z,12.41
2017-04-25T03:25:12.893Z,12.39
2017-04-25T03:26:22.807Z,12.35
2017-04-25T03:27:32.054Z,12.41
2017-04-25T03:28:41.368Z,12.39
2017-04-25T03:29:50.369Z,12.32
2017-04-25T03:30:59.355Z,12.35
2017-04-25T03:32:08.346Z,12.32
2017-04-25T03:33:17.583Z,12.31
2017-04-25T03:34:26.570Z,12.2
2017-04-25T03:35:35.555Z,12.24
2017-04-25T03:36:44.538Z,12.21
2017-04-25T03:37:53.855Z,12.09
2017-04-25T03:39:03.099Z,12.17
2017-04-25T03:40:12.187Z,12.2
2017-04-25T03:41:21.181Z,12.21
2017-04-25T03:42:30.168Z,12.16
2017-04-25T03:43:39.165Z,12.31
2017-04-25T03:44:48.505Z,12.28
2017-04-25T03:45:57.500Z,12.27
2017-04-25T03:47:06.487Z,12.29
2017-04-25T03:48:15.670Z,12.32
2017-04-25T03:49:24.663Z,12.35
2017-04-25T03:50:33.945Z,12.35
2017-04-25T03:51:42.933Z,12.35
2017-04-25T03:52:51.922Z,12.35
2017-04-25T03:54:01.245Z,12.35
2017-04-25T03:55:10.240Z,12.35
2017-04-25T03:56:19.573Z,12.35
2017-04-25T03:57:28.555Z,12.35
2017-04-25T03:58:37.542Z,12.32
2017-04-25T03:59:46.528Z,12.32
2017-04-25T04:00:55.513Z,12.38
2017-04-25T04:02:04.768Z,12.31
2017-04-25T04:03:13.782Z,12.32
2017-04-25T04:04:22.777Z,12.23
2017-04-25T04:05:31.762Z,12.31
2017-04-25T04:06:40.840Z,12.27
2017-04-25T04:07:50.185Z,12.34
2017-04-25T04:08:59.307Z,12.31
2017-04-25T04:10:08.629Z,12.32
2017-04-25T04:11:17.620Z,12.31
2017-04-25T04:12:26.623Z,12.41
2017-04-25T04:13:36.183Z,12.47
2017-04-25T04:14:45.173Z,12.38
2017-04-25T04:15:54.166Z,12.45
2017-04-25T04:17:03.155Z,12.39
2017-04-25T04:18:12.139Z,12.47
2017-04-25T04:19:21.381Z,12.39
2017-04-25T04:20:30.459Z,12.38
2017-04-25T04:21:39.442Z,12.41
2017-04-25T04:22:48.427Z,12.49
2017-04-25T04:23:57.413Z,12.45
2017-04-25T04:25:06.987Z,12.45
2017-04-25T04:26:16.072Z,12.42
2017-04-25T04:27:25.059Z,12.38
2017-04-25T04:28:34.046Z,12.39
2017-04-25T04:29:43.036Z,12.41
2017-04-25T04:30:52.276Z,12.45
2017-04-25T04:32:01.260Z,12.46
2017-04-25T04:33:10.340Z,12.54
2017-04-25T04:34:19.333Z,12.5
2017-04-25T04:35:28.320Z,12.56
2017-04-25T04:36:37.559Z,12.57
2017-04-25T04:37:46.552Z,12.57
2017-04-25T04:38:55.539Z,12.68
2017-04-25T04:40:04.528Z,12.65
2017-04-25T04:41:13.849Z,12.68
2017-04-25T04:42:23.124Z,12.72
2017-04-25T04:43:32.127Z,12.68
2017-04-25T04:44:41.118Z,12.68
2017-04-25T04:45:50.203Z,12.7
2017-04-25T04:46:59.192Z,12.71
2017-04-25T04:48:08.520Z,12.74
2017-04-25T04:49:17.515Z,12.74
2017-04-25T04:50:26.828Z,12.71
2017-04-25T04:51:35.914Z,12.74
2017-04-25T04:52:44.910Z,12.72
2017-04-25T04:53:54.164Z,12.67
2017-04-25T04:55:03.157Z,12.7
2017-04-25T04:56:12.140Z,12.65
2017-04-25T04:57:21.129Z,12.65
2017-04-25T04:58:30.116Z,12.7
2017-04-25T04:59:40.020Z,12.68
2017-04-25T05:00:49.007Z,12.54
2017-04-25T05:01:57.995Z,12.59
2017-04-25T05:03:07.010Z,12.62
2017-04-25T05:04:16.003Z,12.67
2017-04-25T05:05:25.341Z,12.68
2017-04-25T05:06:34.326Z,12.7
2017-04-25T05:07:43.317Z,12.82
2017-04-25T05:08:52.402Z,12.72
2017-04-25T05:10:01.490Z,12.71
2017-04-25T05:11:10.733Z,12.74
2017-04-25T05:12:19.908Z,12.68
2017-04-25T05:13:29.220Z,12.75
2017-04-25T05:14:38.211Z,12.85
2017-04-25T05:15:47.208Z,12.72
2017-04-25T05:16:56.453Z,12.85
2017-04-25T05:18:05.441Z,12.83
2017-04-25T05:19:14.526Z,13
2017-04-25T05:20:23.512Z,12.96
2017-04-25T05:21:32.499Z,12.96
2017-04-25T05:22:41.730Z,13.01
2017-04-25T05:23:50.725Z,13.12
2017-04-25T05:24:59.713Z,13.08
2017-04-25T05:26:08.710Z,13.14
2017-04-25T05:27:17.699Z,13.14
2017-04-25T05:28:26.940Z,13.2
2017-04-25T05:29:35.933Z,13.19
2017-04-25T05:30:44.925Z,13.11
2017-04-25T05:31:53.911Z,13.07
2017-04-25T05:33:02.912Z,13.1
2017-04-25T05:34:12.249Z,13.08
2017-04-25T05:35:21.249Z,13.04
2017-04-25T05:36:30.232Z,13.07
2017-04-25T05:37:39.223Z,13.08
2017-04-25T05:38:48.212Z,13.1
2017-04-25T05:39:57.452Z,13.11
2017-04-25T05:41:06.456Z,13.2
2017-04-25T05:42:15.441Z,13.25
2017-04-25T05:43:24.425Z,13.2
2017-04-25T05:44:33.411Z,13.22
2017-04-25T05:45:42.648Z,13.2
2017-04-25T05:46:51.644Z,13.23
2017-04-25T05:48:00.634Z,13.23
2017-04-25T05:49:09.620Z,13.26
2017-04-25T05:50:18.612Z,13.26
2017-04-25T05:51:27.850Z,13.36
2017-04-25T05:52:36.838Z,13.46
2017-04-25T05:53:45.875Z,13.55
2017-04-25T05:54:54.868Z,13.45
2017-04-25T05:56:03.857Z,13.46
2017-04-25T05:57:13.191Z,13.52
2017-04-25T05:58:22.181Z,13.46
2017-04-25T05:59:31.182Z,13.48
2017-04-25T06:00:40.173Z,13.52
2017-04-25T06:01:49.166Z,13.55
2017-04-25T06:02:58.734Z,13.49
2017-04-25T06:04:07.814Z,13.52
2017-04-25T06:05:17.694Z,13.52
2017-04-25T06:06:27.832Z,13.59
2017-04-25T06:07:37.086Z,13.57
2017-04-25T06:08:46.728Z,13.63
2017-04-25T06:09:55.980Z,13.54
2017-04-25T06:11:05.191Z,13.57
2017-04-25T06:12:14.540Z,13.59
2017-04-25T06:13:23.793Z,13.55
2017-04-25T06:14:33.473Z,13.62
2017-04-25T06:15:42.663Z,13.63
2017-04-25T06:16:51.870Z,13.69
2017-04-25T06:18:01.047Z,13.62
2017-04-25T06:19:10.059Z,13.57
2017-04-25T06:20:19.266Z,13.64
2017-04-25T06:21:28.312Z,13.57
2017-04-25T06:22:38.824Z,13.64
2017-04-25T06:23:50.024Z,13.67
2017-04-25T06:24:59.951Z,13.67
2017-04-25T06:26:09.420Z,13.73
2017-04-25T06:27:18.659Z,13.79
2017-04-25T06:28:28.260Z,13.79
2017-04-25T06:29:37.856Z,13.75
2017-04-25T06:30:47.432Z,13.79
2017-04-25T06:31:56.955Z,13.71
2017-04-25T06:33:06.143Z,13.57
2017-04-25T06:34:15.429Z,13.59
2017-04-25T06:35:24.750Z,13.54
2017-04-25T06:36:34.768Z,13.42
2017-04-25T06:37:44.951Z,13.25
2017-04-25T06:38:53.913Z,13.22
2017-04-25T06:40:03.040Z,13.15
2017-04-25T06:41:12.826Z,13.2
2017-04-25T06:42:22.149Z,13.23
2017-04-25T06:43:31.663Z,13.12
2017-04-25T06:44:40.682Z,13.1
2017-04-25T06:45:49.637Z,13.14
2017-04-25T06:46:59.169Z,13.2
2017-04-25T06:48:08.227Z,13.07
2017-04-25T06:49:17.488Z,13.05
2017-04-25T06:50:26.671Z,13.08
2017-04-25T06:51:36.042Z,13.05
2017-04-25T06:52:45.510Z,13.07
2017-04-25T06:53:54.700Z,12.97
2017-04-25T06:55:04.241Z,12.9
2017-04-25T06:56:13.333Z,12.86
2017-04-25T06:57:22.940Z,12.74
2017-04-25T06:58:32.058Z,12.7
2017-04-25T06:59:41.112Z,12.54
2017-04-25T07:00:50.368Z,12.45
2017-04-25T07:01:59.586Z,12.31
2017-04-25T07:03:08.547Z,12.27
2017-04-25T07:04:17.868Z,12.21
2017-04-25T07:05:28.005Z,12.07
2017-04-25T07:06:37.557Z,12.07
2017-04-25T07:07:46.525Z,11.85
2017-04-25T07:08:55.480Z,11.69
2017-04-25T07:10:04.506Z,11.64
2017-04-25T07:11:13.470Z,11.62
2017-04-25T07:12:22.756Z,11.55
2017-04-25T07:13:31.740Z,11.46
2017-04-25T07:14:40.697Z,11.36
2017-04-25T07:15:49.652Z,11.21
2017-04-25T07:16:58.606Z,11.11
2017-04-25T07:18:07.858Z,11.19
2017-04-25T07:19:16.821Z,11.07
2017-04-25T07:20:26.179Z,11.15
2017-04-25T07:21:35.234Z,11.04
2017-04-25T07:22:44.189Z,10.89
2017-04-25T07:23:54.177Z,10.74
2017-04-25T07:25:03.525Z,10.6
2017-04-25T07:26:12.660Z,10.6
2017-04-25T07:27:21.904Z,10.47
2017-04-25T07:28:31.365Z,10.44
2017-04-25T07:29:40.753Z,10.27
2017-04-25T07:30:49.744Z,10.14
2017-04-25T07:31:58.866Z,9.97
2017-04-25T07:33:07.817Z,9.97
2017-04-25T07:34:16.772Z,9.81
2017-04-25T07:35:25.989Z,9.89
2017-04-25T07:36:35.198Z,9.83
2017-04-25T07:37:44.153Z,9.86
2017-04-25T07:38:53.191Z,9.72
2017-04-25T07:40:02.257Z,9.72
2017-04-25T07:41:11.518Z,9.69
2017-04-25T07:42:20.470Z,9.79
2017-04-25T07:43:29.424Z,9.86
2017-04-25T07:44:38.964Z,9.72
2017-04-25T07:45:49.339Z,9.79
2017-04-25T07:46:58.543Z,9.65
2017-04-25T07:48:07.503Z,9.65
2017-04-25T07:49:16.462Z,9.64
2017-04-25T07:50:25.414Z,9.65
2017-04-25T07:51:34.363Z,9.58
2017-04-25T07:52:43.563Z,9.64
2017-04-25T07:53:52.518Z,9.64
2017-04-25T07:55:01.716Z,9.72
2017-04-25T07:56:10.825Z,9.75
2017-04-25T07:57:19.942Z,9.64
2017-04-25T07:58:29.416Z,9.53
2017-04-25T07:59:39.902Z,9.48
2017-04-25T08:00:49.411Z,9.57
2017-04-25T08:01:58.371Z,9.51
2017-04-25T08:03:07.641Z,9.4
2017-04-25T08:04:17.209Z,9.43
2017-04-25T08:05:26.583Z,9.5
2017-04-25T08:06:35.770Z,9.46
2017-04-25T08:07:44.981Z,9.56
2017-04-25T08:08:54.005Z,9.66
2017-04-25T08:10:03.616Z,9.64
2017-04-25T08:11:13.140Z,9.64
2017-04-25T08:12:22.198Z,9.68
2017-04-25T08:13:31.460Z,9.65
2017-04-25T08:14:40.679Z,9.65
2017-04-25T08:15:50.110Z,9.74
2017-04-25T08:16:59.223Z,9.89
2017-04-25T08:18:08.428Z,9.79
2017-04-25T08:19:17.958Z,9.79
2017-04-25T08:20:28.584Z,9.89
2017-04-25T08:21:38.053Z,10.01
2017-04-25T08:22:47.167Z,10.08
2017-04-25T08:23:56.217Z,10.11
2017-04-25T08:25:05.494Z,9.96
2017-04-25T08:26:14.837Z,10.01
2017-04-25T08:27:24.509Z,9.94
2017-04-25T08:28:33.639Z,10.07
2017-04-25T08:29:42.814Z,9.99
2017-04-25T08:30:51.897Z,9.97
2017-04-25T08:32:00.982Z,9.9
2017-04-25T08:33:10.456Z,9.96
2017-04-25T08:34:19.926Z,9.87
2017-04-25T08:35:29.375Z,9.84
2017-04-25T08:36:38.603Z,9.79
2017-04-25T08:37:47.847Z,9.75
2017-04-25T08:38:57.072Z,9.71
2017-04-25T08:40:06.349Z,9.68
2017-04-25T08:41:15.301Z,9.71
2017-04-25T08:42:24.259Z,9.6
2017-04-25T08:43:33.210Z,9.66
2017-04-25T08:44:42.467Z,9.46
2017-04-25T08:45:51.507Z,9.51
2017-04-25T08:47:00.462Z,9.51
2017-04-25T08:48:09.419Z,9.64
2017-04-25T08:49:18.373Z,9.42
2017-04-25T08:50:27.580Z,9.48
2017-04-25T08:51:36.537Z,9.43
2017-04-25T08:52:45.498Z,9.31
2017-04-25T08:53:54.456Z,9.35
2017-04-25T08:55:03.443Z,9.26
2017-04-25T08:56:12.669Z,9.23
2017-04-25T08:57:21.712Z,9.23
2017-04-25T08:58:30.701Z,9.23
2017-04-25T08:59:39.747Z,9.2
2017-04-25T09:00:48.703Z,9.21
2017-04-25T09:01:57.973Z,9.28
2017-04-25T09:03:06.929Z,9.2
2017-04-25T09:04:15.892Z,9.18
2017-04-25T09:05:24.849Z,9.35
2017-04-25T09:06:33.802Z,9.29
2017-04-25T09:07:43.098Z,9.43
2017-04-25T09:08:52.055Z,9.43
2017-04-25T09:10:01.005Z,9.39
2017-04-25T09:11:09.958Z,9.43
2017-04-25T09:12:18.907Z,9.43
2017-04-25T09:13:28.111Z,9.42
2017-04-25T09:14:37.063Z,9.39
2017-04-25T09:15:46.012Z,9.31
2017-04-25T09:16:54.967Z,9.36
2017-04-25T09:18:03.920Z,9.26
2017-04-25T09:19:13.126Z,9.18
2017-04-25T09:20:22.085Z,9.17
2017-04-25T09:21:31.037Z,9.32
2017-04-25T09:22:40.084Z,9.42
2017-04-25T09:23:49.044Z,9.43
2017-04-25T09:24:58.248Z,9.47
2017-04-25T09:26:07.201Z,9.43
2017-04-25T09:27:16.156Z,9.42
2017-04-25T09:28:25.106Z,9.31
2017-04-25T09:29:34.149Z,9.26
2017-04-25T09:30:43.351Z,9.26
2017-04-25T09:31:52.310Z,9.31
2017-04-25T09:33:01.264Z,9.31
2017-04-25T09:34:10.311Z,9.2
2017-04-25T09:35:19.266Z,9.2
2017-04-25T09:36:28.466Z,9.18
2017-04-25T09:37:37.422Z,9.17
2017-04-25T09:38:46.383Z,9.21
2017-04-25T09:39:55.341Z,9.04
2017-04-25T09:41:04.299Z,9.1
2017-04-25T09:42:14.154Z,8.86
2017-04-25T09:43:23.105Z,8.89
2017-04-25T09:44:32.063Z,8.91
2017-04-25T09:45:41.107Z,9.01
2017-04-25T09:46:50.061Z,9.01
2017-04-25T09:47:59.271Z,9.01
2017-04-25T09:49:08.227Z,9.11
2017-04-25T09:50:17.184Z,9.1
2017-04-25T09:51:26.221Z,9.2
2017-04-25T09:52:35.265Z,9.14
2017-04-25T09:53:44.471Z,9.04
2017-04-25T09:54:53.781Z,9.14
2017-04-25T09:56:02.735Z,9.2
2017-04-25T09:57:11.688Z,9.42
2017-04-25T09:58:20.644Z,9.38
2017-04-25T09:59:30.181Z,9.54
2017-04-25T10:00:39.135Z,9.54
2017-04-25T10:01:48.086Z,9.53
2017-04-25T10:02:57.130Z,9.65
2017-04-25T10:04:06.089Z,9.66
2017-04-25T10:05:15.299Z,9.66
2017-04-25T10:06:24.250Z,9.65
2017-04-25T10:07:33.206Z,9.65
2017-04-25T10:08:42.249Z,9.69
2017-04-25T10:09:51.205Z,9.69
2017-04-25T10:11:00.497Z,9.78
2017-04-25T10:12:09.451Z,9.91
2017-04-25T10:13:18.492Z,9.86
2017-04-25T10:14:27.444Z,9.99
2017-04-25T10:15:36.396Z,9.99
2017-04-25T10:16:45.597Z,9.99
2017-04-25T10:17:54.545Z,9.93
2017-04-25T10:19:03.820Z,9.9
2017-04-25T10:20:12.778Z,9.9
2017-04-25T10:21:22.060Z,10.02
2017-04-25T10:22:31.633Z,9.89
2017-04-25T10:23:40.917Z,9.87
2017-04-25T10:24:49.871Z,10.02
2017-04-25T10:25:58.914Z,10.08
2017-04-25T10:27:07.870Z,10.22
2017-04-25T10:28:17.123Z,10.27
2017-04-25T10:29:26.071Z,10.33
2017-04-25T10:30:35.030Z,10.44
2017-04-25T10:31:44.084Z,10.53
2017-04-25T10:32:53.051Z,10.52
2017-04-25T10:34:02.266Z,10.52
2017-04-25T10:35:11.228Z,10.36
2017-04-25T10:36:20.175Z,10.18
2017-04-25T10:37:29.128Z,10.18
2017-04-25T10:38:38.087Z,10.08
2017-04-25T10:39:47.301Z,9.93
2017-04-25T10:40:56.348Z,9.75
2017-04-25T10:42:05.305Z,9.76
2017-04-25T10:43:14.259Z,9.83
2017-04-25T10:44:23.209Z,9.9
2017-04-25T10:45:32.419Z,9.97
2017-04-25T10:46:41.371Z,10.05
2017-04-25T10:47:50.656Z,9.94
2017-04-25T10:48:59.613Z,9.96
2017-04-25T10:50:09.216Z,10.01
2017-04-25T10:51:18.421Z,10.12
2017-04-25T10:52:27.370Z,10.22
2017-04-25T10:53:36.335Z,10.22
2017-04-25T10:54:45.618Z,10.34
2017-04-25T10:55:54.573Z,10.51
2017-04-25T10:57:03.780Z,10.47
2017-04-25T10:58:12.732Z,10.66
2017-04-25T10:59:21.696Z,10.66
2017-04-25T11:00:30.782Z,10.56
2017-04-25T11:01:39.735Z,10.56
2017-04-25T11:02:48.947Z,10.34
2017-04-25T11:03:57.899Z,10.33
2017-04-25T11:05:06.858Z,10.22
2017-04-25T11:06:15.814Z,10.22
2017-04-25T11:07:24.769Z,10.4
2017-04-25T11:08:33.975Z,10.56
2017-04-25T11:09:43.262Z,10.53
2017-04-25T11:10:52.207Z,10.52
2017-04-25T11:12:01.247Z,10.48
2017-04-25T11:13:10.198Z,10.52
2017-04-25T11:14:19.456Z,10.53
2017-04-25T11:15:28.405Z,10.68
2017-04-25T11:16:37.357Z,10.81
2017-04-25T11:17:46.309Z,10.84
2017-04-25T11:18:55.267Z,10.85
2017-04-25T11:20:04.532Z,10.92
2017-04-25T11:21:13.486Z,10.94
2017-04-25T11:22:22.768Z,10.96
2017-04-25T11:23:31.726Z,10.99
2017-04-25T11:24:41.038Z,10.74
2017-04-25T11:25:50.622Z,10.68
2017-04-25T11:26:59.661Z,10.61
2017-04-25T11:28:08.937Z,10.74
2017-04-25T11:29:17.896Z,10.88
2017-04-25T11:30:26.857Z,10.94
2017-04-25T11:31:36.117Z,10.97
2017-04-25T11:32:45.082Z,10.97
2017-04-25T11:33:54.038Z,10.85
2017-04-25T11:35:02.998Z,10.74
2017-04-25T11:36:11.953Z,10.67
2017-04-25T11:37:21.206Z,10.61
2017-04-25T11:38:30.172Z,10.52
2017-04-25T11:39:39.129Z,10.52
2017-04-25T11:40:48.084Z,10.61
2017-04-25T11:41:57.036Z,10.63
2017-04-25T11:43:06.382Z,10.66
2017-04-25T11:44:15.338Z,10.52
2017-04-25T11:45:24.388Z,10.56
2017-04-25T11:46:33.358Z,10.52
2017-04-25T11:47:42.334Z,10.47
2017-04-25T11:48:51.649Z,10.51
2017-04-25T11:50:00.610Z,10.34
2017-04-25T11:51:09.562Z,10.36
2017-04-25T11:52:18.519Z,10.18
2017-04-25T11:53:27.559Z,10.14
2017-04-25T11:54:36.823Z,10.01
2017-04-25T11:55:45.783Z,9.91
2017-04-25T11:56:54.856Z,9.81
2017-04-25T11:58:03.829Z,9.65
2017-04-25T11:59:12.788Z,9.6
2017-04-25T12:00:22.038Z,9.68
2017-04-25T12:01:30.987Z,9.53
2017-04-25T12:02:39.942Z,9.46
2017-04-25T12:03:49.218Z,9.42
2017-04-25T12:04:58.177Z,9.33
2017-04-25T12:06:07.433Z,9.2
2017-04-25T12:07:16.472Z,9.11
2017-04-25T12:08:25.512Z,8.89
2017-04-25T12:09:34.463Z,8.87
2017-04-25T12:10:43.419Z,8.77
2017-04-25T12:11:52.757Z,8.77
2017-04-25T12:13:02.032Z,8.74
2017-04-25T12:14:10.986Z,8.68
2017-04-25T12:15:20.031Z,8.63
2017-04-25T12:16:28.985Z,8.5
2017-04-25T12:17:38.193Z,8.44
2017-04-25T12:18:47.147Z,8.53
2017-04-25T12:19:56.103Z,8.61
2017-04-25T12:21:05.055Z,8.74
2017-04-25T12:22:14.008Z,8.87
2017-04-25T12:23:23.274Z,8.95
2017-04-25T12:24:32.225Z,9.1
2017-04-25T12:25:41.508Z,9.14
2017-04-25T12:26:50.458Z,9.32
2017-04-25T12:27:59.823Z,9.42
2017-04-25T12:29:09.089Z,9.53
2017-04-25T12:30:18.044Z,9.74
2017-04-25T12:31:27.083Z,9.84
2017-04-25T12:32:36.049Z,9.86
2017-04-25T12:33:45.329Z,10.02
2017-04-25T12:34:54.534Z,10.14
2017-04-25T12:36:03.485Z,10.25
2017-04-25T12:37:12.432Z,10.3
2017-04-25T12:38:21.382Z,10.51
2017-04-25T12:39:30.337Z,10.55
2017-04-25T12:40:39.541Z,10.56
2017-04-25T12:41:48.492Z,10.52
2017-04-25T12:42:57.450Z,10.52
2017-04-25T12:44:06.413Z,10.33
2017-04-25T12:45:15.453Z,10.26
2017-04-25T12:46:25.025Z,10.36
2017-04-25T12:47:34.063Z,10.38
2017-04-25T12:48:43.439Z,10.36
2017-04-25T12:49:52.395Z,10.12
2017-04-25T12:51:01.352Z,10.05
2017-04-25T12:52:10.931Z,10.08
2017-04-25T12:53:19.886Z,10.17
2017-04-25T12:54:28.840Z,10.2
2017-04-25T12:55:37.794Z,10.27
2017-04-25T12:56:46.751Z,10.22
2017-04-25T12:57:56.005Z,10.25
2017-04-25T12:59:04.958Z,10.3
2017-04-25T13:00:13.914Z,10.34
2017-04-25T13:01:23.213Z,10.41
2017-04-25T13:02:32.165Z,10.38
2017-04-25T13:03:41.415Z,10.18
2017-04-25T13:04:50.455Z,10.22
2017-04-25T13:05:59.452Z,10.25
2017-04-25T13:07:08.490Z,10.23
2017-04-25T13:08:17.464Z,10.48
2017-04-25T13:09:26.718Z,10.47
2017-04-25T13:10:35.670Z,10.7
2017-04-25T13:11:44.944Z,10.85
2017-04-25T13:12:53.895Z,11.03
2017-04-25T13:14:02.847Z,11.09
2017-04-25T13:15:12.105Z,11.24
2017-04-25T13:16:21.059Z,11.22
2017-04-25T13:17:30.014Z,11.19
2017-04-25T13:18:38.965Z,11.33
2017-04-25T13:19:47.922Z,11.35
2017-04-25T13:20:57.266Z,11.33
2017-04-25T13:22:06.221Z,11.36
2017-04-25T13:23:15.181Z,11.37
2017-04-25T13:24:24.147Z,11.37
2017-04-25T13:25:33.109Z,11.44
2017-04-25T13:26:42.371Z,11.44
2017-04-25T13:27:51.340Z,11.33
2017-04-25T13:29:01.115Z,11.22
2017-04-25T13:30:10.075Z,11.04
2017-04-25T13:31:19.034Z,10.99
2017-04-25T13:32:28.296Z,11
2017-04-25T13:33:37.577Z,10.79
2017-04-25T13:34:46.535Z,10.81
2017-04-25T13:35:55.491Z,10.63
2017-04-25T13:37:04.448Z,10.61
2017-04-25T13:38:14.052Z,10.52
2017-04-25T13:39:23.003Z,10.51
2017-04-25T13:40:31.967Z,10.44
2017-04-25T13:41:40.922Z,10.51
2017-04-25T13:42:49.883Z,10.55
2017-04-25T13:43:59.554Z,10.6
2017-04-25T13:45:08.508Z,10.63
2017-04-25T13:46:17.640Z,10.61
2017-04-25T13:47:26.683Z,10.61
2017-04-25T13:48:35.967Z,10.59
2017-04-25T13:49:45.214Z,10.61
2017-04-25T13:50:54.160Z,10.47
2017-04-25T13:52:03.114Z,10.66
2017-04-25T13:53:12.075Z,10.71
2017-04-25T13:54:21.031Z,10.82
2017-04-25T13:55:30.236Z,10.88
2017-04-25T13:56:39.190Z,10.84
2017-04-25T13:57:48.153Z,10.85
2017-04-25T13:58:57.110Z,10.96
2017-04-25T14:00:06.069Z,11.09
2017-04-25T14:01:15.326Z,11.21
2017-04-25T14:02:24.288Z,11.27
2017-04-25T14:03:33.250Z,11.49
2017-04-25T14:04:42.215Z,11.62
2017-04-25T14:05:51.167Z,11.76
2017-04-25T14:07:00.419Z,11.88
2017-04-25T14:08:09.369Z,11.96
2017-04-25T14:09:18.327Z,11.98
2017-04-25T14:10:27.279Z,11.78
2017-04-25T14:11:36.225Z,11.69
2017-04-25T14:12:45.569Z,11.64
2017-04-25T14:13:54.706Z,11.49
2017-04-25T14:15:03.658Z,11.55
2017-04-25T14:16:12.616Z,11.55
2017-04-25T14:17:21.995Z,11.52
2017-04-25T14:18:31.338Z,11.69
2017-04-25T14:19:40.289Z,11.7
2017-04-25T14:20:49.240Z,11.96
2017-04-25T14:21:58.199Z,11.95
2017-04-25T14:23:07.154Z,12.02
2017-04-25T14:24:16.391Z,12.07
2017-04-25T14:25:25.345Z,12.21
2017-04-25T14:26:34.479Z,12.23
2017-04-25T14:27:43.436Z,12.37
2017-04-25T14:28:52.394Z,12.41
2017-04-25T14:30:01.649Z,12.53
2017-04-25T14:31:10.603Z,12.68
2017-04-25T14:32:19.556Z,12.71
2017-04-25T14:33:28.514Z,12.7
2017-04-25T14:34:37.555Z,12.85
2017-04-25T14:35:46.812Z,12.83
2017-04-25T14:36:55.771Z,12.86
2017-04-25T14:38:04.779Z,12.96
2017-04-25T14:39:13.741Z,13.03
2017-04-25T14:40:22.694Z,13.01
2017-04-25T14:41:31.902Z,12.87
2017-04-25T14:42:41.183Z,12.83
2017-04-25T14:43:50.154Z,12.82
2017-04-25T14:44:59.110Z,12.74
2017-04-25T14:46:08.071Z,12.83
2017-04-25T14:47:17.325Z,12.77
2017-04-25T14:48:26.277Z,12.89
2017-04-25T14:49:35.234Z,12.87
2017-04-25T14:50:44.509Z,12.95
2017-04-25T14:51:53.641Z,13.03
2017-04-25T14:53:02.894Z,13.08
2017-04-25T14:54:11.850Z,13.17
2017-04-25T14:55:20.901Z,13.2
2017-04-25T14:56:30.026Z,13.14
2017-04-25T14:57:38.982Z,13.12
2017-04-25T14:58:48.572Z,13.1
2017-04-25T14:59:57.528Z,13.04